Helen, Georgia
Current Conditions -  °F | °C
As of 7:35 AM on Sunday 23 Nov 2014 (Local Time) from KTOC Reporting Station
Moderate Rain Moderate Rain  
Wind Chill: 42°   Ceiling: 1100
Heat Index: 45°   Visibility: 5mi
Dew Point: 44°   Wind: 5mph
Humidity: 96%   Direction: 70°ENE
Pressure: 30.13"   Gusts: NA
Location:  34.7°N, 83.73°W
Report Text: KTOC 231235Z AUTO 07004KT 5SM RA OVC011 07/07 A3013 RMK AO2 T00710065
Loading
Personal Weather Stations






























Interactive Weather Map New forecast layout! Learn more

10-Day Weather Forecast

Advertisements
Track Severe Weather on mobile